Time;durP1;ratioP1;P1;durP2;ratioP2;P2;SDS_P1;SDS_P2;PMS_P1;PMS_P2;Temp;Humidity;BMP_temperature;BMP_pressure;BME280_temperature;BME280_humidity;BME280_pressure;Samples;Min_cycle;Max_cycle;Signal;HPM_P1;HPM_P2
2023/03/13 00:01:13;;;;;;;22.58;3.63;;;12.00;99.90;;;;;;4993155;28;20108;-81
2023/03/13 00:03:41;;;;;;;22.38;3.50;;;12.00;99.90;;;;;;4972979;28;20034;-79
2023/03/13 00:06:09;;;;;;;21.92;4.22;;;11.90;99.90;;;;;;4986196;28;20053;-80
2023/03/13 00:08:35;;;;;;;23.35;4.15;;;11.80;99.90;;;;;;4989197;28;20018;-81
2023/03/13 00:11:05;;;;;;;22.45;3.58;;;11.80;99.90;;;;;;4991374;28;20044;-81
2023/03/13 00:13:31;;;;;;;25.15;4.63;;;11.70;99.90;;;;;;4975992;28;20536;-80
2023/03/13 00:16:09;;;;;;;16.02;3.63;;;11.60;99.90;;;;;;4972637;28;20506;-80
2023/03/13 00:18:34;;;;;;;24.85;4.05;;;11.60;99.90;;;;;;4980967;28;20042;-81
2023/03/13 00:21:02;;;;;;;24.20;3.75;;;11.50;99.90;;;;;;4978267;28;20029;-80
2023/03/13 00:23:29;;;;;;;25.13;4.97;;;11.60;99.90;;;;;;4981626;28;20026;-81
2023/03/13 00:25:59;;;;;;;23.05;4.72;;;11.50;99.90;;;;;;4980026;28;20728;-80
2023/03/13 00:28:28;;;;;;;13.02;3.33;;;11.50;99.90;;;;;;4994341;28;20711;-81
2023/03/13 00:31:09;;;;;;;28.52;4.30;;;11.30;99.90;;;;;;4993342;28;20421;-80
2023/03/13 00:33:38;;;;;;;21.15;3.47;;;11.40;99.90;;;;;;4971423;28;20022;-81
2023/03/13 00:36:07;;;;;;;26.15;3.72;;;11.30;99.90;;;;;;4996953;28;20042;-79
2023/03/13 00:38:35;;;;;;;26.23;3.30;;;11.30;99.90;;;;;;4977766;28;20057;-84
2023/03/13 00:41:05;;;;;;;24.27;3.92;;;11.30;99.90;;;;;;4979784;28;20225;-80
2023/03/13 00:43:32;;;;;;;23.50;4.30;;;11.30;99.90;;;;;;4988345;28;20036;-79
2023/03/13 00:45:57;;;;;;;25.50;4.47;;;11.30;99.90;;;;;;4992077;28;20490;-80
2023/03/13 00:48:23;;;;;;;18.30;4.70;;;11.30;99.90;;;;;;4983106;28;20030;-81
2023/03/13 00:50:51;;;;;;;19.42;4.07;;;11.20;99.90;;;;;;4981201;28;20364;-81
2023/03/13 00:53:17;;;;;;;20.08;3.45;;;11.20;99.90;;;;;;4993204;28;20029;-84
2023/03/13 00:55:55;;;;;;;24.98;3.60;;;11.20;99.90;;;;;;4998169;28;20034;-83
2023/03/13 00:58:23;;;;;;;28.85;3.17;;;11.30;99.90;;;;;;4978834;28;20068;-82
2023/03/13 01:00:49;;;;;;;17.98;3.20;;;11.30;99.90;;;;;;4979244;28;20033;-82
2023/03/13 01:03:17;;;;;;;19.85;3.13;;;11.30;99.90;;;;;;4984036;28;20491;-81
2023/03/13 01:05:55;;;;;;;18.77;3.38;;;11.30;99.90;;;;;;4983640;28;20034;-82
2023/03/13 01:08:20;;;;;;;13.77;3.80;;;11.40;99.90;;;;;;4990540;28;20034;-82
2023/03/13 01:10:46;;;;;;;27.10;3.33;;;11.40;99.90;;;;;;4983772;28;20077;-82
2023/03/13 01:13:11;;;;;;;26.38;3.28;;;11.40;99.90;;;;;;4979029;28;20730;-82
2023/03/13 01:15:37;;;;;;;17.67;3.00;;;11.40;99.90;;;;;;4992802;28;20038;-82
2023/03/13 01:18:03;;;;;;;17.00;2.85;;;11.40;99.90;;;;;;4984449;28;20470;-83
2023/03/13 01:20:30;;;;;;;22.40;2.70;;;11.40;99.90;;;;;;4993683;28;20495;-83
2023/03/13 01:22:55;;;;;;;21.15;3.00;;;11.30;99.90;;;;;;4993647;28;20474;-83
2023/03/13 01:25:21;;;;;;;20.15;2.75;;;11.30;99.90;;;;;;4991139;28;20026;-82
2023/03/13 01:27:46;;;;;;;23.67;3.22;;;11.20;99.90;;;;;;4996165;28;20041;-82
2023/03/13 01:30:14;;;;;;;16.55;2.95;;;11.10;99.90;;;;;;4992347;28;20123;-82
2023/03/13 01:32:40;;;;;;;21.08;3.08;;;11.10;99.90;;;;;;4975339;28;20435;-82
2023/03/13 01:35:06;;;;;;;22.63;3.53;;;11.00;99.90;;;;;;4983412;28;20345;-82
2023/03/13 01:37:32;;;;;;;22.02;3.03;;;10.90;99.90;;;;;;4996505;28;20034;-86
2023/03/13 01:39:58;;;;;;;27.23;3.88;;;10.90;99.90;;;;;;4984109;28;20027;-79
2023/03/13 01:42:26;;;;;;;19.20;2.33;;;10.80;99.90;;;;;;4993381;28;20033;-79
2023/03/13 01:44:56;;;;;;;14.85;2.72;;;10.80;99.90;;;;;;4991989;28;20044;-79
2023/03/13 01:47:23;;;;;;;29.35;3.40;;;10.80;99.90;;;;;;5138356;22;21126;-84
2023/03/13 01:49:52;;;;;;;29.45;3.50;;;10.80;99.90;;;;;;4980609;28;20018;-82
2023/03/13 01:52:30;;;;;;;20.95;3.03;;;10.80;99.90;;;;;;4983908;28;20120;-79
2023/03/13 01:55:08;;;;;;;20.25;2.45;;;10.80;99.90;;;;;;4971603;28;20046;-82
2023/03/13 01:57:40;;;;;;;21.27;3.45;;;10.80;99.90;;;;;;4975211;28;20052;-81
2023/03/13 02:00:11;;;;;;;19.85;3.22;;;10.80;99.90;;;;;;4992579;28;20022;-80
2023/03/13 02:02:41;;;;;;;15.02;2.67;;;10.80;99.90;;;;;;4974932;28;20030;-82
2023/03/13 02:05:07;;;;;;;16.75;2.83;;;10.80;99.90;;;;;;4974483;28;20269;-81
2023/03/13 02:07:47;;;;;;;19.08;3.00;;;10.90;99.90;;;;;;4990054;28;20034;-81
2023/03/13 02:10:15;;;;;;;10.00;2.85;;;10.90;99.90;;;;;;4995588;28;20036;-82
2023/03/13 02:12:41;;;;;;;15.32;2.83;;;10.90;99.90;;;;;;4981842;28;20270;-81
2023/03/13 02:15:18;;;;;;;26.70;3.40;;;10.80;99.90;;;;;;4995412;28;20038;-84
2023/03/13 02:17:45;;;;;;;19.05;3.53;;;10.80;99.90;;;;;;4973255;28;20066;-82
2023/03/13 02:20:12;;;;;;;16.13;3.70;;;10.80;99.90;;;;;;4993528;28;20096;-82
2023/03/13 02:22:43;;;;;;;23.15;3.50;;;10.80;99.90;;;;;;4971213;28;20025;-82
2023/03/13 02:25:24;;;;;;;22.27;3.55;;;10.90;99.90;;;;;;4976720;28;20018;-82
2023/03/13 02:28:16;;;;;;;23.30;3.53;;;10.90;99.90;;;;;;4990675;28;20026;-83
2023/03/13 02:30:43;;;;;;;13.65;2.83;;;10.90;99.90;;;;;;4984168;28;20045;-83
2023/03/13 02:33:11;;;;;;;15.95;2.63;;;10.90;99.90;;;;;;4974426;28;20069;-81
2023/03/13 02:35:37;;;;;;;14.57;2.90;;;10.80;99.90;;;;;;4991796;28;20029;-80
2023/03/13 02:38:07;;;;;;;25.15;3.53;;;10.90;99.90;;;;;;4982948;28;20029;-80
2023/03/13 02:40:36;;;;;;;17.80;2.95;;;10.90;99.90;;;;;;4972652;28;20389;-79
2023/03/13 02:43:07;;;;;;;21.52;3.72;;;11.00;99.90;;;;;;4979823;28;20045;-78
2023/03/13 02:45:33;;;;;;;16.17;2.90;;;11.00;99.90;;;;;;4993710;28;20091;-78
2023/03/13 02:47:59;;;;;;;11.35;2.42;;;11.00;99.90;;;;;;4993669;28;20141;-81
2023/03/13 02:50:25;;;;;;;14.15;3.15;;;11.00;99.90;;;;;;4991694;28;20029;-79
2023/03/13 02:52:58;;;;;;;17.52;4.25;;;11.10;99.90;;;;;;5012172;28;20010;-80
2023/03/13 02:55:32;;;;;;;14.75;2.47;;;11.10;99.90;;;;;;4996512;28;20038;-80
2023/03/13 02:58:00;;;;;;;10.65;2.15;;;11.10;99.90;;;;;;4973806;28;20053;-78
2023/03/13 03:00:28;;;;;;;16.90;3.13;;;11.20;99.90;;;;;;4978807;28;20088;-83
2023/03/13 03:02:54;;;;;;;14.10;2.35;;;11.30;99.90;;;;;;5002630;28;20029;-81
2023/03/13 03:05:21;;;;;;;6.80;2.10;;;11.20;99.90;;;;;;4991864;28;20027;-79
2023/03/13 03:07:47;;;;;;;16.60;2.55;;;11.30;99.90;;;;;;5005034;28;20021;-82
2023/03/13 03:10:13;;;;;;;8.93;2.25;;;11.40;99.90;;;;;;5006651;28;20053;-82
2023/03/13 03:12:41;;;;;;;13.18;2.30;;;11.60;99.90;;;;;;4998956;28;20041;-83
2023/03/13 03:15:07;;;;;;;9.45;2.85;;;11.70;99.90;;;;;;4995625;28;20101;-82
2023/03/13 03:17:33;;;;;;;10.32;2.67;;;11.60;99.90;;;;;;4983245;28;20398;-80
2023/03/13 03:19:58;;;;;;;11.10;2.58;;;11.70;99.90;;;;;;4993467;28;20030;-80
2023/03/13 03:22:24;;;;;;;9.95;2.83;;;11.80;99.90;;;;;;4994425;28;20056;-82
2023/03/13 03:24:50;;;;;;;12.43;3.00;;;11.70;99.90;;;;;;4972933;28;20074;-84
2023/03/13 03:27:15;;;;;;;9.75;2.78;;;11.80;99.90;;;;;;4982016;28;20390;-82
2023/03/13 03:29:43;;;;;;;10.90;3.05;;;11.80;99.90;;;;;;4977944;28;20040;-80
2023/03/13 03:32:09;;;;;;;7.88;2.38;;;11.90;99.90;;;;;;4992142;28;20151;-80
2023/03/13 03:34:34;;;;;;;10.73;2.60;;;12.00;99.90;;;;;;4991140;28;20049;-83
2023/03/13 03:37:00;;;;;;;10.95;3.00;;;12.00;99.90;;;;;;4981858;28;20030;-80
2023/03/13 03:39:25;;;;;;;7.05;2.88;;;12.00;99.90;;;;;;4983919;28;20584;-82
2023/03/13 03:41:51;;;;;;;4.05;2.15;;;12.00;99.90;;;;;;4976836;28;20021;-82
2023/03/13 03:44:17;;;;;;;11.50;2.75;;;11.90;99.90;;;;;;4976590;28;20033;-80
2023/03/13 03:46:42;;;;;;;9.60;2.88;;;12.10;99.90;;;;;;4992209;28;20485;-87
2023/03/13 03:49:08;;;;;;;8.88;2.88;;;12.10;99.90;;;;;;5001924;28;20037;-80
2023/03/13 03:51:33;;;;;;;11.30;2.85;;;12.10;99.90;;;;;;5004644;28;20026;-81
2023/03/13 03:53:59;;;;;;;5.68;2.78;;;12.20;99.90;;;;;;4972912;28;20038;-87
2023/03/13 03:56:25;;;;;;;5.65;1.98;;;12.20;99.90;;;;;;4984265;28;20034;-81
2023/03/13 03:58:50;;;;;;;5.30;2.45;;;12.20;99.90;;;;;;4984337;28;20018;-81
2023/03/13 04:01:16;;;;;;;5.13;2.75;;;12.20;99.90;;;;;;4994642;28;20014;-78
2023/03/13 04:03:43;;;;;;;3.35;2.30;;;12.20;99.90;;;;;;4976195;28;20117;-83
2023/03/13 04:06:09;;;;;;;7.75;2.88;;;12.20;99.90;;;;;;4994792;28;20395;-82
2023/03/13 04:08:35;;;;;;;5.28;3.50;;;12.20;99.90;;;;;;4976909;28;20026;-81
2023/03/13 04:11:01;;;;;;;3.53;2.95;;;12.20;99.90;;;;;;4996445;28;20026;-80
2023/03/13 04:13:27;;;;;;;7.10;2.60;;;12.30;99.90;;;;;;4987146;28;20144;-79
2023/03/13 04:15:53;;;;;;;9.13;2.42;;;12.20;99.90;;;;;;4992351;28;20125;-79
2023/03/13 04:18:19;;;;;;;4.70;2.15;;;12.30;99.90;;;;;;4987328;28;20554;-79
2023/03/13 04:20:45;;;;;;;4.00;2.47;;;12.30;99.90;;;;;;4996576;28;20540;-80
2023/03/13 04:23:10;;;;;;;4.25;2.20;;;12.30;99.90;;;;;;4985068;28;20034;-81
2023/03/13 04:25:37;;;;;;;3.58;2.35;;;12.30;99.90;;;;;;4999103;28;20026;-83
2023/03/13 04:28:02;;;;;;;5.65;2.53;;;12.30;99.90;;;;;;5000527;28;20030;-79
2023/03/13 04:30:28;;;;;;;6.55;2.88;;;12.30;99.90;;;;;;4982481;28;20081;-79
2023/03/13 04:32:54;;;;;;;7.03;2.60;;;12.30;99.90;;;;;;4985982;28;20026;-82
2023/03/13 04:35:19;;;;;;;5.40;2.63;;;12.40;99.90;;;;;;4979523;28;20632;-79
2023/03/13 04:37:46;;;;;;;5.35;2.90;;;12.40;99.90;;;;;;4986432;28;20018;-82
2023/03/13 04:40:12;;;;;;;7.15;2.75;;;12.40;99.90;;;;;;4981414;28;20021;-81
2023/03/13 04:42:41;;;;;;;3.72;2.85;;;12.50;99.90;;;;;;4986145;28;20034;-79
2023/03/13 04:45:11;;;;;;;3.25;2.30;;;12.50;99.90;;;;;;4977240;28;20061;-79
2023/03/13 04:47:36;;;;;;;8.13;2.00;;;12.50;99.90;;;;;;4977773;28;20072;-78
2023/03/13 04:50:02;;;;;;;5.20;3.03;;;12.50;99.90;;;;;;4999836;28;20046;-79
2023/03/13 04:52:28;;;;;;;5.47;2.90;;;12.50;99.90;;;;;;4999068;28;20057;-79
2023/03/13 04:54:53;;;;;;;3.22;2.63;;;12.50;99.90;;;;;;5001641;28;20093;-82
2023/03/13 04:57:19;;;;;;;5.78;2.70;;;12.60;99.90;;;;;;4980804;28;20022;-80
2023/03/13 04:59:45;;;;;;;7.25;2.67;;;12.60;99.90;;;;;;4998151;28;20451;-79
2023/03/13 05:02:13;;;;;;;6.03;3.00;;;12.50;99.90;;;;;;4992407;28;20445;-82
2023/03/13 05:04:41;;;;;;;3.47;3.17;;;12.60;99.90;;;;;;4986528;28;20438;-79
2023/03/13 05:07:07;;;;;;;4.38;3.50;;;12.60;99.90;;;;;;4997227;28;20034;-84
2023/03/13 05:09:33;;;;;;;5.68;3.40;;;12.60;99.90;;;;;;4975382;28;20038;-79
2023/03/13 05:11:58;;;;;;;4.50;3.03;;;12.60;99.90;;;;;;4978577;28;20018;-79
2023/03/13 05:14:26;;;;;;;3.33;2.90;;;12.70;99.90;;;;;;4995606;28;20556;-81
2023/03/13 05:16:52;;;;;;;3.85;3.17;;;12.60;99.90;;;;;;4999264;28;20042;-83
2023/03/13 05:19:18;;;;;;;4.93;3.08;;;12.60;99.90;;;;;;4986229;28;20037;-83
2023/03/13 05:21:43;;;;;;;4.25;3.45;;;12.70;99.90;;;;;;4981037;28;20130;-81
2023/03/13 05:24:09;;;;;;;5.25;3.50;;;12.70;99.90;;;;;;4990447;28;20030;-81
2023/03/13 05:26:35;;;;;;;6.57;3.78;;;12.80;99.90;;;;;;4985353;28;20100;-81
2023/03/13 05:29:00;;;;;;;3.58;3.28;;;12.80;99.90;;;;;;4985336;28;20030;-81
2023/03/13 05:31:26;;;;;;;5.43;3.65;;;12.80;99.90;;;;;;4979038;28;20030;-81
2023/03/13 05:33:51;;;;;;;4.43;3.42;;;12.80;99.90;;;;;;4979246;28;20018;-81
2023/03/13 05:36:17;;;;;;;5.10;3.88;;;12.80;99.90;;;;;;4997728;28;20046;-81
2023/03/13 05:38:42;;;;;;;9.77;3.72;;;12.90;99.90;;;;;;4998530;28;20392;-82
2023/03/13 05:41:08;;;;;;;4.57;3.30;;;13.00;99.90;;;;;;5000008;28;20032;-81
2023/03/13 05:43:38;;;;;;;6.32;3.40;;;12.80;99.90;;;;;;5002483;28;20075;-82
2023/03/13 05:46:06;;;;;;;5.57;3.25;;;12.90;99.90;;;;;;4981052;28;20155;-81
2023/03/13 05:48:32;;;;;;;5.13;3.63;;;13.00;99.90;;;;;;4981066;28;20026;-81
2023/03/13 05:50:57;;;;;;;4.25;3.17;;;13.00;99.90;;;;;;4999851;28;20068;-79
2023/03/13 05:53:25;;;;;;;6.70;3.25;;;13.10;99.90;;;;;;4985237;28;20037;-80
2023/03/13 05:55:51;;;;;;;4.38;2.90;;;13.10;99.90;;;;;;4994843;28;20033;-79
2023/03/13 05:58:19;;;;;;;4.20;3.22;;;13.20;99.90;;;;;;4995862;28;20551;-79
2023/03/13 06:00:44;;;;;;;7.03;3.13;;;13.20;99.90;;;;;;4977593;28;20030;-80
2023/03/13 06:03:10;;;;;;;4.68;2.75;;;13.20;99.90;;;;;;4994479;28;20394;-82
2023/03/13 06:05:35;;;;;;;3.85;2.85;;;13.20;99.90;;;;;;4992646;28;20022;-78
2023/03/13 06:08:01;;;;;;;2.95;2.72;;;13.30;99.90;;;;;;4979693;28;20029;-81
2023/03/13 06:10:27;;;;;;;7.80;3.60;;;13.30;99.90;;;;;;4997243;28;20030;-86
2023/03/13 06:12:54;;;;;;;5.22;3.20;;;13.40;99.90;;;;;;4978282;28;20022;-78
2023/03/13 06:15:20;;;;;;;3.05;2.78;;;13.40;99.90;;;;;;4992594;28;20117;-80
2023/03/13 06:17:46;;;;;;;5.20;2.63;;;13.40;99.90;;;;;;4977899;28;20454;-84
2023/03/13 06:20:12;;;;;;;6.05;2.72;;;13.40;99.90;;;;;;4985123;28;20045;-79
2023/03/13 06:22:37;;;;;;;7.25;2.97;;;13.50;99.90;;;;;;4997575;28;20018;-82
2023/03/13 06:25:04;;;;;;;5.70;2.42;;;13.60;99.90;;;;;;4985366;28;20393;-79
2023/03/13 06:27:30;;;;;;;4.50;2.67;;;13.50;99.90;;;;;;4998220;28;20073;-78
2023/03/13 06:29:55;;;;;;;3.83;2.60;;;13.60;99.90;;;;;;4979717;28;20038;-79
2023/03/13 06:32:21;;;;;;;3.58;2.63;;;13.60;99.90;;;;;;4976608;28;20565;-80
2023/03/13 06:34:46;;;;;;;5.63;2.70;;;13.60;99.90;;;;;;4990408;28;20025;-81
2023/03/13 06:37:14;;;;;;;6.57;2.78;;;13.70;99.90;;;;;;4994896;28;20060;-80
2023/03/13 06:39:40;;;;;;;3.92;2.33;;;13.70;99.90;;;;;;4982477;28;20504;-79
2023/03/13 06:42:11;;;;;;;6.93;3.30;;;13.70;99.90;;;;;;4996128;28;20022;-83
2023/03/13 06:44:36;;;;;;;3.85;2.58;;;13.80;99.90;;;;;;4986298;28;20112;-81
2023/03/13 06:47:02;;;;;;;4.70;2.70;;;13.80;99.90;;;;;;4996525;28;20549;-81
2023/03/13 06:49:27;;;;;;;9.25;2.53;;;13.80;99.90;;;;;;4996362;28;20048;-80
2023/03/13 06:51:57;;;;;;;3.53;2.30;;;13.90;99.90;;;;;;4995721;28;20093;-82
2023/03/13 06:54:23;;;;;;;3.08;2.42;;;13.90;99.90;;;;;;4993602;28;20022;-81
2023/03/13 06:56:49;;;;;;;5.80;2.83;;;13.90;99.90;;;;;;4977898;28;20044;-79
2023/03/13 06:59:14;;;;;;;4.45;2.72;;;14.00;99.90;;;;;;4998527;28;20468;-81
2023/03/13 07:01:40;;;;;;;5.68;2.55;;;14.00;99.90;;;;;;4978542;28;20163;-84
2023/03/13 07:04:06;;;;;;;7.35;2.38;;;14.00;99.90;;;;;;4983298;28;20104;-80
2023/03/13 07:06:31;;;;;;;4.80;2.50;;;14.10;99.90;;;;;;4980453;28;20057;-80
2023/03/13 07:08:57;;;;;;;5.35;2.58;;;14.00;99.90;;;;;;4993798;28;20034;-81
2023/03/13 07:11:23;;;;;;;4.57;2.35;;;14.10;99.90;;;;;;4976191;28;20071;-81
2023/03/13 07:13:52;;;;;;;3.40;2.15;;;14.10;99.90;;;;;;4986737;28;20080;-85
2023/03/13 07:16:18;;;;;;;6.38;2.13;;;14.20;99.90;;;;;;4994897;28;20030;-81
2023/03/13 07:18:44;;;;;;;7.03;2.35;;;14.20;99.90;;;;;;4984653;28;20071;-80
2023/03/13 07:21:10;;;;;;;6.38;2.40;;;14.20;99.90;;;;;;5000512;28;20026;-85
2023/03/13 07:23:38;;;;;;;3.60;2.50;;;14.30;99.90;;;;;;4980861;28;20022;-80
2023/03/13 07:26:06;;;;;;;4.05;2.70;;;14.30;99.90;;;;;;5000713;28;20496;-83
2023/03/13 07:28:33;;;;;;;8.23;2.08;;;14.40;99.90;;;;;;4981883;28;20067;-79
2023/03/13 07:31:04;;;;;;;3.65;2.22;;;14.40;99.90;;;;;;4991487;28;20034;-84
2023/03/13 07:33:30;;;;;;;8.27;2.35;;;14.40;99.90;;;;;;4994882;28;20026;-81
2023/03/13 07:35:56;;;;;;;5.68;1.83;;;14.40;99.90;;;;;;4993162;28;20288;-80
2023/03/13 07:38:21;;;;;;;2.95;2.00;;;14.50;99.90;;;;;;4989894;28;20030;-80
2023/03/13 07:40:51;;;;;;;7.07;2.55;;;14.50;99.90;;;;;;4973574;28;20020;-81
2023/03/13 07:43:21;;;;;;;6.90;2.17;;;14.30;99.90;;;;;;4994605;28;20474;-80
2023/03/13 07:46:06;;;;;;;4.15;1.88;;;14.50;99.90;;;;;;4981006;28;20053;-84
2023/03/13 07:48:38;;;;;;;9.43;1.95;;;14.60;99.90;;;;;;4994743;28;20044;-87
2023/03/13 07:51:06;;;;;;;2.70;1.77;;;14.60;99.90;;;;;;4990611;28;20093;-83
2023/03/13 07:53:35;;;;;;;6.80;1.85;;;14.70;99.90;;;;;;4977784;28;20021;-81
2023/03/13 07:56:03;;;;;;;10.63;2.30;;;14.70;99.90;;;;;;4983148;28;20567;-80
2023/03/13 07:58:31;;;;;;;5.75;2.50;;;14.60;99.90;;;;;;4980813;28;20022;-80
2023/03/13 08:00:57;;;;;;;5.75;1.90;;;14.70;99.90;;;;;;4995395;28;20030;-82
2023/03/13 08:03:23;;;;;;;7.82;2.22;;;14.70;99.90;;;;;;4997823;28;20018;-82
2023/03/13 08:06:04;;;;;;;6.80;1.95;;;14.70;99.90;;;;;;4999819;28;20390;-83
2023/03/13 08:08:30;;;;;;;6.05;1.90;;;14.70;99.90;;;;;;4982606;28;20100;-78
2023/03/13 08:11:06;;;;;;;10.10;4.18;;;14.70;99.90;;;;;;4991368;28;20033;-78
2023/03/13 08:13:35;;;;;;;8.43;2.20;;;14.80;99.90;;;;;;4994118;28;20058;-82
2023/03/13 08:16:15;;;;;;;7.55;2.17;;;14.80;99.90;;;;;;4972351;28;20454;-81
2023/03/13 08:18:43;;;;;;;7.75;2.40;;;14.80;99.90;;;;;;4982342;28;20067;-82
2023/03/13 08:21:14;;;;;;;5.18;1.88;;;14.90;99.90;;;;;;4975742;28;20115;-81
2023/03/13 08:23:41;;;;;;;8.40;2.55;;;14.90;99.90;;;;;;4977432;28;20065;-79
2023/03/13 08:26:12;;;;;;;7.75;1.75;;;14.90;99.90;;;;;;4992762;28;20022;-80
2023/03/13 08:28:38;;;;;;;5.55;2.10;;;14.80;99.90;;;;;;4981497;28;20022;-82
2023/03/13 08:31:18;;;;;;;6.20;2.03;;;14.90;99.90;;;;;;4988949;28;20051;-82
2023/03/13 08:33:45;;;;;;;6.78;2.00;;;14.90;99.90;;;;;;4990742;28;20105;-81
2023/03/13 08:36:17;;;;;;;7.93;2.20;;;14.90;99.90;;;;;;4993336;28;20026;-80
2023/03/13 08:38:43;;;;;;;14.40;2.33;;;15.00;99.90;;;;;;5000179;28;20037;-80
2023/03/13 08:41:10;;;;;;;8.38;2.00;;;14.90;99.90;;;;;;4987770;28;20082;-81
2023/03/13 08:43:36;;;;;;;9.68;2.60;;;15.00;99.90;;;;;;5006667;28;20026;-80
2023/03/13 08:46:02;;;;;;;6.80;1.80;;;15.00;99.90;;;;;;4988549;28;20045;-82
2023/03/13 08:48:30;;;;;;;13.52;3.30;;;15.10;99.90;;;;;;4992547;28;20030;-78
2023/03/13 08:51:13;;;;;;;11.05;2.95;;;15.20;99.90;;;;;;5006438;28;20056;-80
2023/03/13 08:53:41;;;;;;;9.55;2.30;;;15.10;99.90;;;;;;5009847;28;20030;-81
2023/03/13 08:56:14;;;;;;;6.70;2.20;;;15.20;99.90;;;;;;5011555;28;20042;-81
2023/03/13 08:58:39;;;;;;;8.68;1.92;;;15.40;99.90;;;;;;5003907;28;20346;-80
2023/03/13 09:01:14;;;;;;;8.13;2.08;;;15.30;99.90;;;;;;4982712;28;20032;-85
2023/03/13 09:03:41;;;;;;;6.00;1.95;;;15.60;99.90;;;;;;4973557;28;20027;-82
2023/03/13 09:06:08;;;;;;;8.77;1.90;;;15.60;99.90;;;;;;4992583;28;20122;-79
2023/03/13 09:08:35;;;;;;;14.55;2.95;;;15.60;99.90;;;;;;4990723;28;20027;-79
2023/03/13 09:11:11;;;;;;;8.05;1.85;;;15.50;99.90;;;;;;4982928;28;20034;-80
2023/03/13 09:13:39;;;;;;;5.40;2.20;;;15.60;99.90;;;;;;4984251;28;20699;-80
2023/03/13 09:16:07;;;;;;;3.88;1.73;;;15.70;99.90;;;;;;4995770;28;20076;-82
2023/03/13 09:18:34;;;;;;;10.95;2.58;;;15.80;99.90;;;;;;4992859;28;20050;-81
2023/03/13 09:21:00;;;;;;;6.72;1.67;;;16.00;99.90;;;;;;4993105;28;20101;-80
2023/03/13 09:23:25;;;;;;;3.03;1.75;;;16.10;99.90;;;;;;4990666;28;20037;-82
2023/03/13 09:25:52;;;;;;;10.38;2.08;;;16.20;99.90;;;;;;4981294;28;20022;-82
2023/03/13 09:28:18;;;;;;;4.30;2.20;;;16.30;99.90;;;;;;4993287;28;20040;-80
2023/03/13 09:30:44;;;;;;;5.22;2.00;;;16.00;99.90;;;;;;4991555;28;20513;-82
2023/03/13 09:33:10;;;;;;;10.30;1.70;;;16.20;99.90;;;;;;4979240;28;20026;-82
2023/03/13 09:35:38;;;;;;;7.88;1.92;;;16.00;99.90;;;;;;4998490;28;20038;-80
2023/03/13 09:38:04;;;;;;;3.03;2.05;;;16.20;99.90;;;;;;4993024;28;20050;-79
2023/03/13 09:40:40;;;;;;;7.03;1.38;;;16.10;99.90;;;;;;4996555;28;20025;-80
2023/03/13 09:43:17;;;;;;;3.10;1.67;;;16.00;99.90;;;;;;4982353;28;20407;-80
2023/03/13 09:45:47;;;;;;;10.25;2.00;;;16.00;99.90;;;;;;4981624;28;20026;-81
2023/03/13 09:48:28;;;;;;;4.95;1.88;;;16.20;99.90;;;;;;4994195;28;20132;-81
2023/03/13 09:51:11;;;;;;;7.00;1.70;;;16.50;99.90;;;;;;4993766;28;20022;-80
2023/03/13 09:54:04;;;;;;;7.18;2.22;;;16.40;99.90;;;;;;4994293;28;20026;-81
2023/03/13 09:56:39;;;;;;;11.85;1.88;;;16.50;99.90;;;;;;4975266;28;20034;-80
2023/03/13 09:59:27;;;;;;;6.60;1.80;;;16.60;99.90;;;;;;4981484;28;20057;-82
2023/03/13 10:01:55;;;;;;;8.25;1.70;;;16.90;99.90;;;;;;4973796;28;20036;-81
2023/03/13 10:04:31;;;;;;;7.60;2.33;;;17.30;99.90;;;;;;4990297;28;20505;-79
2023/03/13 10:06:57;;;;;;;8.65;2.45;;;17.20;99.90;;;;;;4991051;28;20052;-79
2023/03/13 10:09:30;;;;;;;15.48;2.72;;;17.10;99.90;;;;;;4989495;28;20462;-80
2023/03/13 10:12:22;;;;;;;5.13;1.98;;;16.80;99.90;;;;;;4979542;28;20120;-78
2023/03/13 10:14:51;;;;;;;4.38;1.52;;;16.90;99.90;;;;;;4993224;28;20038;-80
2023/03/13 10:17:35;;;;;;;7.90;2.33;;;17.00;99.90;;;;;;4976523;28;20034;-79
2023/03/13 10:20:13;;;;;;;4.82;1.30;;;17.20;99.90;;;;;;4994277;28;20026;-81
2023/03/13 10:22:43;;;;;;;6.15;1.58;;;17.60;99.90;;;;;;4976330;28;20079;-81
2023/03/13 10:25:30;;;;;;;3.38;1.42;;;17.60;99.90;;;;;;4979152;28;20029;-80
2023/03/13 10:27:56;;;;;;;4.15;1.48;;;17.30;99.90;;;;;;4974559;28;20021;-80
2023/03/13 10:30:24;;;;;;;8.40;2.17;;;17.00;99.90;;;;;;4993045;28;20125;-81
2023/03/13 10:33:10;;;;;;;5.65;1.70;;;17.00;99.90;;;;;;4994791;28;20034;-83
2023/03/13 10:35:41;;;;;;;4.82;2.13;;;17.30;99.90;;;;;;4993031;28;20200;-80
2023/03/13 10:38:19;;;;;;;8.63;2.65;;;17.90;99.90;;;;;;4991827;28;20091;-81
2023/03/13 10:41:00;;;;;;;3.22;1.48;;;18.00;99.90;;;;;;4979271;28;20378;-82
2023/03/13 10:43:27;;;;;;;2.10;1.20;;;17.80;99.90;;;;;;4976703;28;20113;-81
2023/03/13 10:45:55;;;;;;;2.92;1.40;;;17.50;99.90;;;;;;4979374;28;20050;-79
2023/03/13 10:48:27;;;;;;;2.20;1.20;;;17.40;99.90;;;;;;4992869;28;20061;-82
2023/03/13 10:50:57;;;;;;;3.20;1.40;;;17.50;99.90;;;;;;4991895;28;20438;-85
2023/03/13 10:53:29;;;;;;;3.78;1.73;;;17.40;99.90;;;;;;4981880;28;20075;-82
2023/03/13 10:55:59;;;;;;;5.90;1.40;;;17.70;99.90;;;;;;4978765;28;20030;-82
2023/03/13 10:58:46;;;;;;;2.13;1.40;;;17.90;99.90;;;;;;4992371;28;20033;-81
2023/03/13 11:01:25;;;;;;;10.05;3.83;;;18.00;99.90;;;;;;4990365;28;20054;-80
2023/03/13 11:03:53;;;;;;;8.63;2.83;;;18.10;99.90;;;;;;4992502;28;20105;-80
2023/03/13 11:06:32;;;;;;;6.78;1.83;;;18.20;99.90;;;;;;4991929;28;20023;-78
2023/03/13 11:09:01;;;;;;;3.10;1.20;;;17.90;99.90;;;;;;4992455;28;20034;-81
2023/03/13 11:11:29;;;;;;;3.17;1.50;;;17.60;99.90;;;;;;4997344;28;20249;-86
2023/03/13 11:14:14;;;;;;;2.05;1.23;;;17.70;99.90;;;;;;4995930;28;20092;-87
2023/03/13 11:16:50;;;;;;;1.65;1.30;;;17.50;99.90;;;;;;4978032;28;20141;-82
2023/03/13 11:19:24;;;;;;;6.07;1.40;;;17.50;99.90;;;;;;4995809;28;20105;-81
2023/03/13 11:22:01;;;;;;;2.50;1.27;;;17.60;99.90;;;;;;4972603;28;20783;-81
2023/03/13 11:24:53;;;;;;;2.25;0.90;;;17.70;99.90;;;;;;4977282;28;20485;-84
2023/03/13 11:27:46;;;;;;;3.42;1.23;;;17.70;99.90;;;;;;4994691;28;20364;-79
2023/03/13 11:30:18;;;;;;;2.83;1.63;;;17.70;99.90;;;;;;4992745;28;20025;-78
2023/03/13 11:32:54;;;;;;;7.25;2.78;;;17.60;99.90;;;;;;4991501;28;20022;-83
2023/03/13 11:35:32;;;;;;;2.58;1.02;;;17.60;99.90;;;;;;4973900;28;20678;-86
2023/03/13 11:38:02;;;;;;;1.95;1.35;;;17.60;99.90;;;;;;4979598;28;20049;-84
2023/03/13 11:40:41;;;;;;;2.35;1.15;;;17.70;99.90;;;;;;4984528;28;20033;-88
2023/03/13 11:43:07;;;;;;;1.90;1.15;;;17.70;99.90;;;;;;4984348;28;20080;-85
2023/03/13 11:45:52;;;;;;;1.60;1.30;;;17.80;99.90;;;;;;4978304;28;20022;-84
2023/03/13 11:48:44;;;;;;;2.78;1.00;;;18.00;99.90;;;;;;4974329;28;20486;-83
2023/03/13 11:51:26;;;;;;;3.15;1.10;;;18.00;99.90;;;;;;4990485;28;20033;-86
2023/03/13 11:54:28;;;;;;;1.23;1.10;;;18.10;99.90;;;;;;4973216;28;20022;-82
2023/03/13 11:56:58;;;;;;;4.97;0.85;;;18.20;99.90;;;;;;4974922;28;20137;-82
2023/03/13 11:59:35;;;;;;;4.18;1.15;;;18.30;99.90;;;;;;4995863;28;20033;-82
2023/03/13 12:02:19;;;;;;;2.63;1.00;;;18.40;99.90;;;;;;4981850;28;20085;-81
2023/03/13 12:05:03;;;;;;;4.07;1.30;;;18.30;99.90;;;;;;4976872;28;20025;-87
2023/03/13 12:07:37;;;;;;;3.28;1.10;;;18.30;99.90;;;;;;4992440;28;20029;-83
2023/03/13 12:10:16;;;;;;;2.88;1.23;;;18.40;99.90;;;;;;4989475;28;20410;-81
2023/03/13 12:12:55;;;;;;;3.45;1.10;;;18.60;99.90;;;;;;4971912;28;20022;-82
2023/03/13 12:15:42;;;;;;;1.50;1.00;;;18.30;99.90;;;;;;4986318;28;20466;-82
2023/03/13 12:18:27;;;;;;;3.15;1.13;;;18.40;99.90;;;;;;4988286;28;20026;-81
2023/03/13 12:21:00;;;;;;;2.38;0.93;;;18.40;99.90;;;;;;4992998;28;20026;-82
2023/03/13 12:23:36;;;;;;;4.30;1.02;;;18.50;99.90;;;;;;4993422;28;20026;-90
2023/03/13 12:26:15;;;;;;;2.20;1.08;;;18.60;99.90;;;;;;4980668;28;20113;-82
2023/03/13 12:28:56;;;;;;;3.40;2.22;;;19.00;99.90;;;;;;4988167;28;20033;-83
2023/03/13 12:31:28;;;;;;;1.17;1.10;;;18.80;99.90;;;;;;4974708;28;20037;-84
2023/03/13 12:34:14;;;;;;;2.60;1.33;;;19.20;99.90;;;;;;4969826;28;20105;-84
2023/03/13 12:37:00;;;;;;;3.60;1.20;;;19.40;99.90;;;;;;4991128;28;20618;-85
2023/03/13 12:39:49;;;;;;;2.95;1.20;;;19.50;99.90;;;;;;4991026;28;20025;-82
2023/03/13 12:42:24;;;;;;;2.17;1.00;;;19.50;99.90;;;;;;4991185;28;20081;-83
2023/03/13 12:44:50;;;;;;;2.75;1.00;;;19.00;99.90;;;;;;4993549;28;20063;-85
2023/03/13 12:47:31;;;;;;;1.83;0.95;;;18.80;99.90;;;;;;4982723;28;20022;-81
2023/03/13 12:50:08;;;;;;;1.38;1.00;;;18.60;99.90;;;;;;4998682;28;20105;-84
2023/03/13 12:53:15;;;;;;;2.40;1.20;;;18.80;99.90;;;;;;4979442;28;20041;-81
2023/03/13 12:56:02;;;;;;;2.67;0.88;;;18.90;99.90;;;;;;4995532;28;20027;-81
2023/03/13 12:58:46;;;;;;;1.30;0.80;;;19.10;99.90;;;;;;4977060;28;20115;-81